Time;durP1;ratioP1;P1;durP2;ratioP2;P2;SDS_P1;SDS_P2;PMS_P1;PMS_P2;Temp;Humidity;BMP_temperature;BMP_pressure;BME280_temperature;BME280_humidity;BME280_pressure;Samples;Min_cycle;Max_cycle;Signal;HPM_P1;HPM_P2
2020/12/25 00:00:32;;;;;;;;;;;21.30;36.20;;;;;;491638;240;966;-69
2020/12/25 00:02:33;;;;;;;;;;;21.20;36.20;;;;;;491583;240;2179;-69
2020/12/25 00:04:35;;;;;;;;;;;21.20;36.20;;;;;;491511;240;998;-69
2020/12/25 00:06:37;;;;;;;;;;;21.30;36.20;;;;;;491572;240;1014;-70
2020/12/25 00:08:37;;;;;;;;;;;21.30;36.10;;;;;;491586;240;1418;-69
2020/12/25 00:10:39;;;;;;;;;;;21.30;36.00;;;;;;491648;240;1038;-69
2020/12/25 00:12:40;;;;;;;;;;;21.30;36.00;;;;;;491651;240;1347;-69
2020/12/25 00:14:41;;;;;;;;;;;21.40;36.00;;;;;;491611;240;1034;-69
2020/12/25 00:16:43;;;;;;;;;;;21.30;36.00;;;;;;491652;240;1075;-70
2020/12/25 00:18:44;;;;;;;;;;;21.30;36.00;;;;;;491713;240;1102;-69
2020/12/25 00:20:45;;;;;;;;;;;21.30;36.00;;;;;;491597;240;2143;-69
2020/12/25 00:22:47;;;;;;;;;;;21.30;35.90;;;;;;491622;238;1148;-69
2020/12/25 00:24:48;;;;;;;;;;;21.30;35.90;;;;;;491678;240;1120;-69
2020/12/25 00:26:49;;;;;;;;;;;21.30;36.00;;;;;;491624;240;1079;-69
2020/12/25 00:28:51;;;;;;;;;;;21.30;35.90;;;;;;491649;240;1200;-69
2020/12/25 00:30:52;;;;;;;;;;;21.30;35.90;;;;;;491655;240;1130;-70
2020/12/25 00:32:53;;;;;;;;;;;21.20;35.90;;;;;;491681;240;1144;-70
2020/12/25 00:34:54;;;;;;;;;;;21.30;35.80;;;;;;491685;240;927;-69
2020/12/25 00:36:56;;;;;;;;;;;21.20;35.80;;;;;;491511;240;964;-70
2020/12/25 00:38:57;;;;;;;;;;;21.20;35.90;;;;;;491649;240;1118;-69
2020/12/25 00:40:58;;;;;;;;;;;21.20;35.90;;;;;;491609;240;2195;-69
2020/12/25 00:43:00;;;;;;;;;;;21.20;35.80;;;;;;491606;240;1094;-69
2020/12/25 00:45:01;;;;;;;;;;;21.30;35.80;;;;;;491738;240;1193;-69
2020/12/25 00:47:02;;;;;;;;;;;21.30;35.60;;;;;;491649;240;962;-69
2020/12/25 00:49:03;;;;;;;;;;;21.30;35.60;;;;;;491662;240;1048;-69
2020/12/25 00:51:05;;;;;;;;;;;21.30;35.60;;;;;;491613;240;960;-70
2020/12/25 00:53:06;;;;;;;;;;;21.20;35.60;;;;;;491543;240;939;-70
2020/12/25 00:55:07;;;;;;;;;;;21.20;35.60;;;;;;491596;240;994;-70
2020/12/25 00:57:08;;;;;;;;;;;21.20;35.60;;;;;;491628;240;1230;-69
2020/12/25 00:59:10;;;;;;;;;;;21.20;35.60;;;;;;491687;240;1107;-70
2020/12/25 01:01:11;;;;;;;;;;;21.20;35.60;;;;;;491645;240;2183;-69
2020/12/25 01:03:12;;;;;;;;;;;21.20;35.60;;;;;;491673;240;1070;-69
2020/12/25 01:05:14;;;;;;;;;;;21.20;35.60;;;;;;491656;240;1002;-69
2020/12/25 01:07:15;;;;;;;;;;;21.20;35.60;;;;;;491581;240;1544;-69
2020/12/25 01:09:16;;;;;;;;;;;21.20;35.50;;;;;;491651;240;1092;-69
2020/12/25 01:11:17;;;;;;;;;;;21.20;35.40;;;;;;491633;240;1011;-70
2020/12/25 01:13:19;;;;;;;;;;;21.20;35.50;;;;;;491685;240;1069;-69
2020/12/25 01:15:20;;;;;;;;;;;21.20;35.50;;;;;;491608;240;1172;-69
2020/12/25 01:17:21;;;;;;;;;;;21.20;35.60;;;;;;491647;240;944;-69
2020/12/25 01:19:23;;;;;;;;;;;21.10;35.50;;;;;;491670;240;1243;-69
2020/12/25 01:21:24;;;;;;;;;;;21.10;35.60;;;;;;491561;240;2128;-69
2020/12/25 01:23:25;;;;;;;;;;;21.10;35.50;;;;;;491634;240;1084;-69
2020/12/25 01:25:26;;;;;;;;;;;21.10;35.50;;;;;;491546;240;1273;-69
2020/12/25 01:27:28;;;;;;;;;;;21.20;35.40;;;;;;491505;240;1020;-69
2020/12/25 01:29:29;;;;;;;;;;;21.20;35.40;;;;;;491688;240;1279;-69
2020/12/25 01:31:30;;;;;;;;;;;21.20;35.50;;;;;;491529;240;991;-69
2020/12/25 01:33:31;;;;;;;;;;;21.20;35.50;;;;;;491635;240;1059;-69
2020/12/25 01:35:33;;;;;;;;;;;21.10;35.40;;;;;;491655;240;953;-69
2020/12/25 01:37:34;;;;;;;;;;;21.20;35.30;;;;;;491613;240;976;-69
2020/12/25 01:39:35;;;;;;;;;;;21.20;35.30;;;;;;491749;240;1065;-69
2020/12/25 01:41:36;;;;;;;;;;;21.20;35.40;;;;;;491643;240;2136;-69
2020/12/25 01:43:38;;;;;;;;;;;21.20;35.40;;;;;;491622;240;1043;-70
2020/12/25 01:45:39;;;;;;;;;;;21.20;35.30;;;;;;491602;240;1168;-69
2020/12/25 01:47:40;;;;;;;;;;;21.20;35.30;;;;;;491676;240;1028;-69
2020/12/25 01:49:42;;;;;;;;;;;21.20;35.30;;;;;;491661;240;937;-69
2020/12/25 01:51:43;;;;;;;;;;;21.10;35.30;;;;;;491641;240;976;-69
2020/12/25 01:53:44;;;;;;;;;;;21.10;35.40;;;;;;491710;240;1057;-69
2020/12/25 01:55:45;;;;;;;;;;;21.20;35.40;;;;;;491692;240;1078;-69
2020/12/25 01:57:47;;;;;;;;;;;21.20;35.30;;;;;;491640;240;1233;-69
2020/12/25 01:59:48;;;;;;;;;;;21.20;35.30;;;;;;491631;240;1173;-69
2020/12/25 02:01:49;;;;;;;;;;;21.20;35.30;;;;;;491530;240;2196;-69
2020/12/25 02:03:51;;;;;;;;;;;21.10;35.30;;;;;;491601;240;1164;-69
2020/12/25 02:05:52;;;;;;;;;;;21.10;35.30;;;;;;491627;240;976;-69
2020/12/25 02:07:55;;;;;;;;;;;21.20;35.30;;;;;;491635;240;1224;-69
2020/12/25 02:09:55;;;;;;;;;;;21.20;35.30;;;;;;491691;241;1973;-69
2020/12/25 02:11:56;;;;;;;;;;;21.20;35.30;;;;;;491659;240;1159;-69
2020/12/25 02:13:58;;;;;;;;;;;21.20;35.30;;;;;;491660;240;1138;-69
2020/12/25 02:15:59;;;;;;;;;;;21.20;35.30;;;;;;491698;240;1147;-69
2020/12/25 02:18:00;;;;;;;;;;;21.20;35.20;;;;;;491514;240;1195;-69
2020/12/25 02:20:02;;;;;;;;;;;21.20;35.20;;;;;;491606;240;978;-69
2020/12/25 02:22:03;;;;;;;;;;;21.20;35.20;;;;;;491537;240;2184;-69
2020/12/25 02:24:04;;;;;;;;;;;21.20;35.30;;;;;;491586;240;996;-69
2020/12/25 02:26:05;;;;;;;;;;;21.10;35.30;;;;;;491578;240;981;-69
2020/12/25 02:28:07;;;;;;;;;;;21.20;35.30;;;;;;491568;240;1300;-69
2020/12/25 02:30:08;;;;;;;;;;;21.20;35.20;;;;;;491710;240;1112;-69
2020/12/25 02:32:09;;;;;;;;;;;21.10;35.30;;;;;;491584;240;1242;-69
2020/12/25 02:34:10;;;;;;;;;;;21.10;35.30;;;;;;491644;240;974;-69
2020/12/25 02:36:12;;;;;;;;;;;21.10;35.30;;;;;;491590;240;990;-69
2020/12/25 02:38:13;;;;;;;;;;;21.10;35.30;;;;;;491622;240;1087;-70
2020/12/25 02:40:14;;;;;;;;;;;21.20;35.20;;;;;;491633;240;943;-69
2020/12/25 02:42:16;;;;;;;;;;;21.20;35.20;;;;;;491594;240;2191;-69
2020/12/25 02:44:17;;;;;;;;;;;21.20;35.20;;;;;;491650;240;938;-69
2020/12/25 02:46:18;;;;;;;;;;;21.10;35.30;;;;;;491621;240;1146;-69
2020/12/25 02:48:19;;;;;;;;;;;21.20;35.30;;;;;;491606;240;1048;-69
2020/12/25 02:50:21;;;;;;;;;;;21.20;35.30;;;;;;491766;240;1048;-70
2020/12/25 02:52:22;;;;;;;;;;;21.20;35.20;;;;;;491436;240;1507;-69
2020/12/25 02:54:23;;;;;;;;;;;21.20;35.20;;;;;;491532;240;934;-69
2020/12/25 02:56:24;;;;;;;;;;;21.20;35.20;;;;;;491596;240;1126;-69
2020/12/25 02:58:26;;;;;;;;;;;21.30;35.20;;;;;;491624;240;1190;-69
2020/12/25 03:00:27;;;;;;;;;;;21.20;35.30;;;;;;491653;240;1109;-69
2020/12/25 03:02:28;;;;;;;;;;;21.20;35.20;;;;;;491653;240;2129;-70
2020/12/25 03:04:30;;;;;;;;;;;21.20;35.20;;;;;;491663;240;1072;-69
2020/12/25 03:06:31;;;;;;;;;;;21.20;35.30;;;;;;491582;240;1093;-69
2020/12/25 03:08:32;;;;;;;;;;;21.20;35.30;;;;;;491474;240;1118;-69
2020/12/25 03:10:33;;;;;;;;;;;21.20;35.30;;;;;;491509;240;1343;-70
2020/12/25 03:12:35;;;;;;;;;;;21.20;35.30;;;;;;491525;240;1152;-69
2020/12/25 03:14:36;;;;;;;;;;;21.20;35.30;;;;;;491583;240;1072;-69
2020/12/25 03:16:37;;;;;;;;;;;21.20;35.20;;;;;;491662;240;1229;-69
2020/12/25 03:18:38;;;;;;;;;;;21.20;35.20;;;;;;491662;240;1296;-69
2020/12/25 03:20:40;;;;;;;;;;;21.20;35.20;;;;;;491611;240;1198;-69
2020/12/25 03:22:41;;;;;;;;;;;21.20;35.20;;;;;;491759;240;2187;-70
2020/12/25 03:24:42;;;;;;;;;;;21.20;35.20;;;;;;491655;240;1174;-69
2020/12/25 03:26:44;;;;;;;;;;;21.20;35.20;;;;;;491655;240;1046;-69
2020/12/25 03:28:45;;;;;;;;;;;21.20;35.30;;;;;;491633;240;938;-69
2020/12/25 03:30:46;;;;;;;;;;;21.20;35.10;;;;;;491436;240;1138;-69
2020/12/25 03:32:47;;;;;;;;;;;21.20;35.10;;;;;;491635;240;1024;-69
2020/12/25 03:34:49;;;;;;;;;;;21.20;35.10;;;;;;491651;240;1202;-69
2020/12/25 03:36:50;;;;;;;;;;;21.20;34.90;;;;;;491633;240;1146;-69
2020/12/25 03:38:51;;;;;;;;;;;21.20;34.90;;;;;;491597;240;958;-69
2020/12/25 03:40:52;;;;;;;;;;;21.20;34.80;;;;;;491675;240;1020;-70
2020/12/25 03:42:54;;;;;;;;;;;21.20;34.70;;;;;;491662;240;2188;-69
2020/12/25 03:44:55;;;;;;;;;;;21.20;34.80;;;;;;491715;240;1053;-70
2020/12/25 03:46:56;;;;;;;;;;;21.20;34.80;;;;;;491648;240;1159;-70
2020/12/25 03:48:58;;;;;;;;;;;21.10;34.70;;;;;;491661;240;1308;-69
2020/12/25 03:51:00;;;;;;;;;;;21.10;34.70;;;;;;491666;240;962;-69
2020/12/25 03:53:01;;;;;;;;;;;21.10;34.50;;;;;;491734;240;1046;-69
2020/12/25 03:55:02;;;;;;;;;;;21.10;34.40;;;;;;491621;240;950;-69
2020/12/25 03:57:04;;;;;;;;;;;21.10;34.40;;;;;;491657;240;951;-69
2020/12/25 03:59:05;;;;;;;;;;;21.10;34.30;;;;;;491678;240;924;-69
2020/12/25 04:01:06;;;;;;;;;;;21.10;34.30;;;;;;491617;240;1173;-70
2020/12/25 04:03:08;;;;;;;;;;;21.00;34.40;;;;;;491641;240;2188;-69
2020/12/25 04:05:09;;;;;;;;;;;21.00;34.30;;;;;;491695;240;970;-69
2020/12/25 04:07:10;;;;;;;;;;;21.00;34.30;;;;;;491643;240;1088;-69
2020/12/25 04:09:11;;;;;;;;;;;21.10;34.20;;;;;;491658;240;952;-69
2020/12/25 04:11:13;;;;;;;;;;;21.00;34.30;;;;;;491586;240;1039;-70
2020/12/25 04:13:14;;;;;;;;;;;21.00;34.20;;;;;;491692;240;966;-69
2020/12/25 04:15:15;;;;;;;;;;;21.00;34.20;;;;;;491669;240;924;-69
2020/12/25 04:17:16;;;;;;;;;;;20.90;34.20;;;;;;491508;240;1180;-69
2020/12/25 04:19:18;;;;;;;;;;;20.90;34.30;;;;;;491666;240;1055;-69
2020/12/25 04:21:19;;;;;;;;;;;20.90;34.30;;;;;;491630;240;1057;-69
2020/12/25 04:23:20;;;;;;;;;;;20.90;34.30;;;;;;491626;240;2195;-70
2020/12/25 04:25:22;;;;;;;;;;;20.90;34.20;;;;;;491622;240;972;-69
2020/12/25 04:27:23;;;;;;;;;;;20.80;34.20;;;;;;491631;240;1230;-69
2020/12/25 04:29:24;;;;;;;;;;;20.90;34.20;;;;;;491678;240;988;-69
2020/12/25 04:31:25;;;;;;;;;;;20.90;34.10;;;;;;491627;240;1150;-70
2020/12/25 04:33:27;;;;;;;;;;;20.80;34.10;;;;;;491649;240;1346;-69
2020/12/25 04:35:28;;;;;;;;;;;20.80;34.10;;;;;;491554;240;1071;-69
2020/12/25 04:37:30;;;;;;;;;;;20.80;34.00;;;;;;491561;240;1232;-69
2020/12/25 04:39:31;;;;;;;;;;;20.80;34.10;;;;;;491665;240;1160;-70
2020/12/25 04:41:32;;;;;;;;;;;20.80;34.00;;;;;;491664;240;963;-69
2020/12/25 04:43:33;;;;;;;;;;;20.80;33.90;;;;;;491646;240;2141;-69
2020/12/25 04:45:35;;;;;;;;;;;20.80;34.00;;;;;;491646;240;1096;-69
2020/12/25 04:47:37;;;;;;;;;;;20.80;34.00;;;;;;491639;240;1168;-69
2020/12/25 04:49:37;;;;;;;;;;;20.80;33.80;;;;;;491552;240;1424;-69
2020/12/25 04:51:38;;;;;;;;;;;20.80;33.80;;;;;;491572;240;1130;-70
2020/12/25 04:53:40;;;;;;;;;;;20.80;33.80;;;;;;491621;240;1017;-69
2020/12/25 04:55:41;;;;;;;;;;;20.70;33.80;;;;;;491610;240;1028;-69
2020/12/25 04:57:42;;;;;;;;;;;20.70;33.90;;;;;;491579;240;1080;-69
2020/12/25 04:59:44;;;;;;;;;;;20.70;33.70;;;;;;491663;240;953;-70
2020/12/25 05:01:45;;;;;;;;;;;20.80;33.70;;;;;;491594;240;1301;-69
2020/12/25 05:03:46;;;;;;;;;;;20.80;33.70;;;;;;491631;240;2148;-69
2020/12/25 05:05:47;;;;;;;;;;;20.70;33.70;;;;;;491642;240;948;-70
2020/12/25 05:07:49;;;;;;;;;;;20.70;33.70;;;;;;491668;240;1211;-69
2020/12/25 05:09:50;;;;;;;;;;;20.70;33.70;;;;;;491549;240;960;-69
2020/12/25 05:11:51;;;;;;;;;;;20.70;33.70;;;;;;491567;240;1326;-70
2020/12/25 05:13:52;;;;;;;;;;;20.70;33.60;;;;;;491618;240;973;-70
2020/12/25 05:15:54;;;;;;;;;;;20.70;33.50;;;;;;491664;240;951;-69
2020/12/25 05:17:55;;;;;;;;;;;20.70;33.50;;;;;;491632;240;1240;-69
2020/12/25 05:19:57;;;;;;;;;;;20.70;33.60;;;;;;491607;240;960;-69
2020/12/25 05:21:58;;;;;;;;;;;20.70;33.50;;;;;;491523;240;1188;-70
2020/12/25 05:23:59;;;;;;;;;;;20.70;33.40;;;;;;491604;240;2184;-69
2020/12/25 05:26:00;;;;;;;;;;;20.70;33.40;;;;;;491636;240;995;-69
2020/12/25 05:28:02;;;;;;;;;;;20.70;33.50;;;;;;491613;240;944;-69
2020/12/25 05:30:03;;;;;;;;;;;20.70;33.50;;;;;;491578;240;1132;-69
2020/12/25 05:32:04;;;;;;;;;;;20.70;33.30;;;;;;491606;240;1113;-69
2020/12/25 05:34:05;;;;;;;;;;;20.70;33.30;;;;;;491669;240;1060;-69
2020/12/25 05:36:07;;;;;;;;;;;20.70;33.40;;;;;;491623;240;952;-70
2020/12/25 05:38:08;;;;;;;;;;;20.70;33.30;;;;;;491527;240;1074;-69
2020/12/25 05:40:09;;;;;;;;;;;20.80;33.30;;;;;;491528;240;977;-69
2020/12/25 05:42:11;;;;;;;;;;;20.80;33.20;;;;;;491557;240;1021;-69
2020/12/25 05:44:12;;;;;;;;;;;20.80;33.20;;;;;;491602;240;2136;-69
2020/12/25 05:46:13;;;;;;;;;;;20.70;33.30;;;;;;491648;240;932;-69
2020/12/25 05:48:14;;;;;;;;;;;20.60;33.30;;;;;;491694;240;1157;-69
2020/12/25 05:50:16;;;;;;;;;;;20.70;33.30;;;;;;491517;240;997;-69
2020/12/25 05:52:17;;;;;;;;;;;20.60;33.30;;;;;;491623;240;955;-69
2020/12/25 05:54:18;;;;;;;;;;;20.60;33.30;;;;;;491661;240;991;-69
2020/12/25 05:56:19;;;;;;;;;;;20.60;33.30;;;;;;491545;240;1064;-69
2020/12/25 05:58:21;;;;;;;;;;;20.60;33.30;;;;;;491506;240;995;-70
2020/12/25 06:00:22;;;;;;;;;;;20.70;33.30;;;;;;491601;240;1066;-69
2020/12/25 06:02:23;;;;;;;;;;;20.70;33.20;;;;;;491548;240;1151;-69
2020/12/25 06:04:25;;;;;;;;;;;20.60;33.20;;;;;;491662;240;2188;-69
2020/12/25 06:06:26;;;;;;;;;;;20.60;33.20;;;;;;491607;240;989;-69
2020/12/25 06:08:27;;;;;;;;;;;20.60;33.20;;;;;;491702;240;1088;-69
2020/12/25 06:10:28;;;;;;;;;;;20.70;33.10;;;;;;491603;240;948;-70
2020/12/25 06:12:30;;;;;;;;;;;20.70;33.00;;;;;;491561;240;1056;-69
2020/12/25 06:14:31;;;;;;;;;;;20.60;33.10;;;;;;491502;240;1172;-69
2020/12/25 06:16:32;;;;;;;;;;;20.60;33.20;;;;;;491624;240;975;-69
2020/12/25 06:18:34;;;;;;;;;;;20.60;33.10;;;;;;491644;240;1140;-69
2020/12/25 06:20:35;;;;;;;;;;;20.60;33.20;;;;;;491568;240;999;-69
2020/12/25 06:22:36;;;;;;;;;;;20.60;33.10;;;;;;491483;240;1219;-69
2020/12/25 06:24:38;;;;;;;;;;;20.60;33.20;;;;;;491613;240;2168;-69
2020/12/25 06:26:39;;;;;;;;;;;20.60;33.10;;;;;;491556;240;968;-69
2020/12/25 06:28:41;;;;;;;;;;;20.60;33.10;;;;;;491584;240;1320;-69
2020/12/25 06:30:42;;;;;;;;;;;20.70;33.00;;;;;;491562;240;1017;-69
2020/12/25 06:32:43;;;;;;;;;;;20.70;32.80;;;;;;491489;240;1279;-69
2020/12/25 06:34:44;;;;;;;;;;;20.70;32.90;;;;;;491698;240;1098;-69
2020/12/25 06:36:46;;;;;;;;;;;20.70;32.80;;;;;;491615;240;1015;-69
2020/12/25 06:38:47;;;;;;;;;;;20.70;32.80;;;;;;491567;240;1036;-70
2020/12/25 06:40:48;;;;;;;;;;;20.70;32.70;;;;;;491646;240;963;-69
2020/12/25 06:42:49;;;;;;;;;;;20.70;32.70;;;;;;491637;240;1188;-69
2020/12/25 06:44:51;;;;;;;;;;;20.60;32.80;;;;;;491672;240;2120;-69
2020/12/25 06:46:52;;;;;;;;;;;20.60;32.80;;;;;;491611;240;1116;-69
2020/12/25 06:48:53;;;;;;;;;;;20.60;32.90;;;;;;491525;240;1141;-70
2020/12/25 06:50:55;;;;;;;;;;;20.60;32.80;;;;;;491507;240;1061;-70
2020/12/25 06:52:56;;;;;;;;;;;20.60;32.90;;;;;;491552;240;1183;-69
2020/12/25 06:54:57;;;;;;;;;;;20.50;32.80;;;;;;491611;240;1054;-69
2020/12/25 06:56:58;;;;;;;;;;;20.50;32.90;;;;;;491591;240;1145;-69
2020/12/25 06:59:00;;;;;;;;;;;20.60;32.80;;;;;;491583;240;1117;-69
2020/12/25 07:01:01;;;;;;;;;;;20.60;32.80;;;;;;491613;240;955;-69
2020/12/25 07:03:02;;;;;;;;;;;20.60;32.80;;;;;;491479;240;2192;-70
2020/12/25 07:05:03;;;;;;;;;;;20.60;32.70;;;;;;491568;240;954;-69
2020/12/25 07:07:05;;;;;;;;;;;20.60;32.80;;;;;;491548;240;1226;-69
2020/12/25 07:09:06;;;;;;;;;;;20.60;32.80;;;;;;491582;240;1414;-69
2020/12/25 07:11:07;;;;;;;;;;;20.60;32.70;;;;;;491537;240;1108;-70
2020/12/25 07:13:09;;;;;;;;;;;20.60;32.70;;;;;;491627;240;1327;-69
2020/12/25 07:15:10;;;;;;;;;;;20.60;32.60;;;;;;491707;240;969;-69
2020/12/25 07:17:11;;;;;;;;;;;20.60;32.70;;;;;;491630;240;1240;-69
2020/12/25 07:19:14;;;;;;;;;;;20.60;32.60;;;;;;491637;240;1146;-70
2020/12/25 07:21:15;;;;;;;;;;;20.60;32.70;;;;;;491584;240;995;-69
2020/12/25 07:23:18;;;;;;;;;;;20.60;32.70;;;;;;491536;240;2191;-69
2020/12/25 07:25:19;;;;;;;;;;;20.50;32.80;;;;;;491489;240;1447;-70
2020/12/25 07:27:20;;;;;;;;;;;20.50;32.70;;;;;;491588;240;992;-69
2020/12/25 07:29:21;;;;;;;;;;;20.70;32.70;;;;;;491681;240;964;-69
2020/12/25 07:31:23;;;;;;;;;;;20.60;32.70;;;;;;491605;240;987;-69
2020/12/25 07:33:24;;;;;;;;;;;20.60;32.70;;;;;;491535;238;1337;-69
2020/12/25 07:35:25;;;;;;;;;;;20.70;32.70;;;;;;491546;240;979;-69
2020/12/25 07:37:26;;;;;;;;;;;20.70;32.60;;;;;;491598;240;940;-70
2020/12/25 07:39:28;;;;;;;;;;;20.70;32.50;;;;;;491572;240;1070;-69
2020/12/25 07:41:29;;;;;;;;;;;20.70;32.60;;;;;;491555;240;971;-69
2020/12/25 07:43:30;;;;;;;;;;;20.70;32.70;;;;;;491449;240;2195;-69
2020/12/25 07:45:32;;;;;;;;;;;20.70;32.60;;;;;;491607;240;1045;-69
2020/12/25 07:47:33;;;;;;;;;;;20.70;32.70;;;;;;491596;240;1001;-69
2020/12/25 07:49:34;;;;;;;;;;;20.70;32.60;;;;;;491646;240;1196;-69
2020/12/25 07:51:35;;;;;;;;;;;20.70;32.60;;;;;;491627;240;936;-69
2020/12/25 07:53:37;;;;;;;;;;;20.60;32.70;;;;;;491512;240;1048;-69
2020/12/25 07:55:38;;;;;;;;;;;20.60;32.60;;;;;;491567;240;954;-70
2020/12/25 07:57:39;;;;;;;;;;;20.60;32.60;;;;;;491630;240;1057;-69
2020/12/25 07:59:41;;;;;;;;;;;20.60;32.70;;;;;;491636;242;1493;-69
2020/12/25 08:01:42;;;;;;;;;;;20.60;32.60;;;;;;491459;240;1191;-69
2020/12/25 08:03:43;;;;;;;;;;;20.50;32.70;;;;;;491569;238;2192;-70
2020/12/25 08:05:44;;;;;;;;;;;20.50;32.70;;;;;;491578;240;996;-70
2020/12/25 08:07:46;;;;;;;;;;;20.50;32.70;;;;;;491579;240;1046;-69
2020/12/25 08:09:47;;;;;;;;;;;20.50;32.70;;;;;;491600;240;1083;-69
2020/12/25 08:11:48;;;;;;;;;;;20.50;32.70;;;;;;491608;240;1414;-69
2020/12/25 08:13:50;;;;;;;;;;;20.60;32.70;;;;;;491559;240;980;-69
2020/12/25 08:15:51;;;;;;;;;;;20.60;32.60;;;;;;491584;240;1018;-69
2020/12/25 08:17:52;;;;;;;;;;;20.60;32.80;;;;;;491626;240;1028;-70
2020/12/25 08:19:53;;;;;;;;;;;20.50;32.70;;;;;;491627;240;1230;-70
2020/12/25 08:21:55;;;;;;;;;;;20.50;32.80;;;;;;491530;240;969;-69
2020/12/25 08:23:56;;;;;;;;;;;20.50;32.70;;;;;;491654;240;2188;-69
2020/12/25 08:25:58;;;;;;;;;;;20.50;32.70;;;;;;491610;240;1074;-69
2020/12/25 08:27:59;;;;;;;;;;;20.50;32.70;;;;;;491469;240;1046;-70
2020/12/25 08:30:00;;;;;;;;;;;20.40;32.70;;;;;;491670;240;978;-69
2020/12/25 08:32:01;;;;;;;;;;;20.50;32.80;;;;;;491575;240;1070;-69
2020/12/25 08:34:03;;;;;;;;;;;20.40;32.90;;;;;;491567;239;1284;-69
2020/12/25 08:36:04;;;;;;;;;;;20.40;32.90;;;;;;491417;240;1087;-70
2020/12/25 08:38:06;;;;;;;;;;;20.40;32.90;;;;;;491634;240;1110;-69
2020/12/25 08:40:07;;;;;;;;;;;20.40;32.90;;;;;;491641;240;975;-70
2020/12/25 08:42:09;;;;;;;;;;;20.40;32.90;;;;;;491572;240;1075;-70
2020/12/25 08:44:11;;;;;;;;;;;20.40;32.80;;;;;;491641;240;2188;-69
2020/12/25 08:46:12;;;;;;;;;;;20.40;32.90;;;;;;491591;240;947;-69
2020/12/25 08:48:13;;;;;;;;;;;20.40;32.80;;;;;;491594;240;1091;-69
2020/12/25 08:50:14;;;;;;;;;;;20.50;32.80;;;;;;491589;240;1173;-70
2020/12/25 08:52:16;;;;;;;;;;;20.50;32.80;;;;;;491525;240;1320;-70
2020/12/25 08:54:17;;;;;;;;;;;20.40;32.80;;;;;;491548;240;959;-70
2020/12/25 08:56:18;;;;;;;;;;;20.40;32.80;;;;;;491574;240;1227;-69
2020/12/25 08:58:20;;;;;;;;;;;20.40;32.80;;;;;;491586;240;1164;-69
2020/12/25 09:00:21;;;;;;;;;;;20.40;32.80;;;;;;491534;240;1142;-69
2020/12/25 09:02:22;;;;;;;;;;;20.50;32.80;;;;;;491401;240;1080;-69
2020/12/25 09:04:24;;;;;;;;;;;20.40;32.80;;;;;;491563;240;2179;-70
2020/12/25 09:06:25;;;;;;;;;;;20.50;32.80;;;;;;491529;240;1170;-69
2020/12/25 09:08:26;;;;;;;;;;;20.40;32.80;;;;;;491673;240;958;-69
2020/12/25 09:10:28;;;;;;;;;;;20.40;32.80;;;;;;491639;240;1277;-69
2020/12/25 09:12:29;;;;;;;;;;;20.50;32.80;;;;;;491597;240;1073;-69
2020/12/25 09:14:30;;;;;;;;;;;20.50;32.80;;;;;;491630;240;943;-69
2020/12/25 09:16:31;;;;;;;;;;;20.40;32.80;;;;;;491583;240;1081;-69
2020/12/25 09:18:33;;;;;;;;;;;20.40;32.80;;;;;;491558;240;1019;-69
2020/12/25 09:20:34;;;;;;;;;;;20.50;32.80;;;;;;491526;240;1269;-69
2020/12/25 09:22:35;;;;;;;;;;;20.40;32.70;;;;;;491540;240;1209;-69
2020/12/25 09:24:37;;;;;;;;;;;20.40;32.80;;;;;;491604;240;2141;-69
2020/12/25 09:26:38;;;;;;;;;;;20.40;32.80;;;;;;491542;240;1011;-69
2020/12/25 09:28:39;;;;;;;;;;;20.40;32.80;;;;;;491590;240;1130;-69
2020/12/25 09:30:40;;;;;;;;;;;20.40;32.80;;;;;;491635;240;1047;-69
2020/12/25 09:32:42;;;;;;;;;;;20.30;32.90;;;;;;491570;240;1074;-69
2020/12/25 09:34:43;;;;;;;;;;;20.40;33.00;;;;;;491488;240;1176;-69
2020/12/25 09:36:44;;;;;;;;;;;20.20;32.90;;;;;;491607;240;1382;-69
2020/12/25 09:38:45;;;;;;;;;;;20.30;33.00;;;;;;491584;240;1105;-69
2020/12/25 09:40:47;;;;;;;;;;;20.30;33.00;;;;;;491532;240;1070;-69
2020/12/25 09:42:48;;;;;;;;;;;20.30;32.90;;;;;;491619;240;1199;-69
2020/12/25 09:44:49;;;;;;;;;;;20.30;33.00;;;;;;491629;240;2196;-69
2020/12/25 09:46:51;;;;;;;;;;;20.30;32.90;;;;;;491644;240;1219;-69
2020/12/25 09:48:52;;;;;;;;;;;20.30;32.90;;;;;;491599;240;993;-69
2020/12/25 09:50:53;;;;;;;;;;;20.30;33.00;;;;;;491592;240;1182;-69
2020/12/25 09:52:54;;;;;;;;;;;20.30;33.00;;;;;;491499;240;1187;-69
2020/12/25 09:54:56;;;;;;;;;;;20.30;32.90;;;;;;491625;240;959;-69
2020/12/25 09:56:57;;;;;;;;;;;20.30;32.90;;;;;;491571;240;1159;-69
2020/12/25 09:58:58;;;;;;;;;;;20.30;32.80;;;;;;491519;240;984;-69
2020/12/25 10:01:00;;;;;;;;;;;20.30;32.90;;;;;;491459;240;1110;-70
2020/12/25 10:03:01;;;;;;;;;;;20.20;32.90;;;;;;491491;240;1165;-69
2020/12/25 10:05:02;;;;;;;;;;;20.20;32.90;;;;;;491521;240;2141;-69
2020/12/25 10:07:03;;;;;;;;;;;20.30;32.90;;;;;;491588;240;1079;-69
2020/12/25 10:09:05;;;;;;;;;;;20.20;32.90;;;;;;491564;240;1098;-70
2020/12/25 10:11:06;;;;;;;;;;;20.30;32.90;;;;;;491403;240;1125;-69
2020/12/25 10:13:08;;;;;;;;;;;20.30;32.90;;;;;;491486;240;997;-69
2020/12/25 10:15:09;;;;;;;;;;;20.30;32.90;;;;;;491609;240;940;-69
2020/12/25 10:17:10;;;;;;;;;;;20.30;32.90;;;;;;491512;240;964;-69
2020/12/25 10:19:11;;;;;;;;;;;20.30;32.90;;;;;;491503;240;1003;-69
2020/12/25 10:21:13;;;;;;;;;;;20.20;32.90;;;;;;491499;240;1284;-69
2020/12/25 10:23:14;;;;;;;;;;;20.20;32.90;;;;;;491644;240;935;-69
2020/12/25 10:25:15;;;;;;;;;;;20.20;33.00;;;;;;491517;240;2176;-69
2020/12/25 10:27:16;;;;;;;;;;;20.20;33.00;;;;;;491586;240;980;-70
2020/12/25 10:29:18;;;;;;;;;;;20.20;33.00;;;;;;491472;240;958;-69
2020/12/25 10:31:19;;;;;;;;;;;20.20;33.10;;;;;;491486;240;1092;-69
2020/12/25 10:33:20;;;;;;;;;;;20.20;33.00;;;;;;491540;240;1097;-69
2020/12/25 10:35:22;;;;;;;;;;;20.30;33.00;;;;;;491488;240;1137;-69
2020/12/25 10:37:24;;;;;;;;;;;20.30;32.90;;;;;;491460;240;980;-69
2020/12/25 10:39:26;;;;;;;;;;;20.30;32.90;;;;;;491550;240;1010;-69
2020/12/25 10:41:27;;;;;;;;;;;20.30;32.90;;;;;;491557;240;955;-70
2020/12/25 10:43:28;;;;;;;;;;;20.30;32.90;;;;;;491502;240;1056;-69
2020/12/25 10:45:29;;;;;;;;;;;20.30;32.90;;;;;;491609;240;2188;-69
2020/12/25 10:47:31;;;;;;;;;;;20.30;32.90;;;;;;491574;240;1101;-69
2020/12/25 10:49:32;;;;;;;;;;;20.30;32.90;;;;;;491595;240;986;-69
2020/12/25 10:51:33;;;;;;;;;;;20.30;32.80;;;;;;491653;240;1195;-69
2020/12/25 10:53:35;;;;;;;;;;;20.30;32.80;;;;;;491650;240;967;-69
2020/12/25 10:55:37;;;;;;;;;;;20.30;32.70;;;;;;491495;240;1515;-69
2020/12/25 10:57:38;;;;;;;;;;;20.40;32.70;;;;;;491535;240;1027;-69
2020/12/25 10:59:39;;;;;;;;;;;20.40;32.70;;;;;;491643;240;941;-69
2020/12/25 11:01:40;;;;;;;;;;;20.30;32.70;;;;;;491633;240;1130;-69
2020/12/25 11:03:42;;;;;;;;;;;20.40;32.70;;;;;;491565;240;972;-69
2020/12/25 11:05:43;;;;;;;;;;;20.40;32.60;;;;;;491494;240;2200;-70
2020/12/25 11:07:44;;;;;;;;;;;20.40;32.70;;;;;;491469;240;1031;-69
2020/12/25 11:09:45;;;;;;;;;;;20.30;32.70;;;;;;491607;240;975;-69
2020/12/25 11:11:47;;;;;;;;;;;20.40;32.80;;;;;;491531;240;963;-69
2020/12/25 11:16:09;;;;;;;;;;;20.40;32.60;;;;;;491472;241;1063;-69
2020/12/25 11:18:10;;;;;;;;;;;20.40;32.70;;;;;;491677;240;1018;-69
2020/12/25 11:20:12;;;;;;;;;;;20.30;32.70;;;;;;491615;240;985;-69
2020/12/25 11:22:14;;;;;;;;;;;20.40;32.60;;;;;;491528;240;1396;-69
2020/12/25 11:24:15;;;;;;;;;;;20.30;32.60;;;;;;491521;240;1426;-69
2020/12/25 11:26:16;;;;;;;;;;;20.30;32.50;;;;;;491619;240;2187;-69
2020/12/25 11:28:19;;;;;;;;;;;20.40;32.50;;;;;;491518;240;967;-69
2020/12/25 11:30:20;;;;;;;;;;;20.40;32.50;;;;;;491609;240;1155;-70
2020/12/25 11:32:22;;;;;;;;;;;20.40;32.50;;;;;;491656;240;943;-69
2020/12/25 11:34:23;;;;;;;;;;;20.30;32.60;;;;;;491663;240;968;-69
2020/12/25 11:36:24;;;;;;;;;;;20.40;32.50;;;;;;491541;240;1199;-69
2020/12/25 11:38:25;;;;;;;;;;;20.40;32.50;;;;;;491613;240;958;-69
2020/12/25 11:40:27;;;;;;;;;;;20.40;32.50;;;;;;491588;240;942;-69
2020/12/25 11:42:28;;;;;;;;;;;20.30;32.50;;;;;;491509;240;1025;-69
2020/12/25 11:44:29;;;;;;;;;;;20.30;32.50;;;;;;491612;240;1055;-69
2020/12/25 11:46:31;;;;;;;;;;;20.40;32.50;;;;;;491481;240;2184;-69
2020/12/25 11:48:32;;;;;;;;;;;20.40;32.40;;;;;;491572;240;951;-69
2020/12/25 11:50:33;;;;;;;;;;;20.40;32.40;;;;;;491547;240;962;-70
2020/12/25 11:52:36;;;;;;;;;;;20.40;32.40;;;;;;491494;240;1166;-69
2020/12/25 11:54:37;;;;;;;;;;;20.40;32.40;;;;;;491567;240;1012;-69
2020/12/25 11:56:38;;;;;;;;;;;20.50;32.40;;;;;;491648;240;1051;-69
2020/12/25 11:58:40;;;;;;;;;;;20.40;32.40;;;;;;491585;240;977;-69
2020/12/25 12:00:41;;;;;;;;;;;20.40;32.40;;;;;;491638;240;1115;-69